Grimstead, Virginia
Current Conditions -  °F | °C
As of 5:55 AM on Thursday 27 Nov 2014 (Local Time) from KW75 Reporting Station
Broken Clouds Broken Clouds  
Wind Chill: 35°   Ceiling: 11000
Heat Index: 35°   Visibility: 10mi
Dew Point: 34°   Wind: 0mph
Humidity: 96%   Direction: NA
Pressure: 30.03"   Gusts: NA
Location:  37.5°N, 76.3°W
Report Text: KW75 271055Z AUTO 00000KT 10SM SCT055 SCT090 BKN110 02/01 A3003 RMK AO1 T00160010
Loading
Personal Weather Stations






























Interactive Weather Map New forecast layout! Learn more

10-Day Weather Forecast

Advertisements
Track Severe Weather on mobile